createdAt,value
2023-03-17T12:07:37.054Z,2.7
2023-03-17T12:12:36.358Z,4.9
2023-03-17T12:17:35.718Z,2.8
2023-03-17T12:22:35.117Z,2.1
2023-03-17T12:27:34.487Z,3.6
2023-03-17T12:32:33.884Z,1.4
2023-03-17T12:37:33.141Z,1.6
2023-03-17T12:42:32.453Z,2.1
2023-03-17T12:47:31.846Z,2.3
2023-03-17T12:52:31.220Z,10.2
2023-03-17T12:57:30.533Z,2.9
2023-03-17T13:02:29.904Z,3.5
2023-03-17T13:07:29.242Z,1.1
2023-03-17T13:12:28.602Z,3.9
2023-03-17T13:17:27.963Z,2.6
2023-03-17T13:22:27.364Z,3.9
2023-03-17T13:27:26.694Z,2.5
2023-03-17T13:32:26.204Z,3
2023-03-17T13:37:25.299Z,2.4
2023-03-17T13:42:24.617Z,3.3
2023-03-17T13:47:23.984Z,6.1
2023-03-17T13:52:23.317Z,2
2023-03-17T13:57:22.636Z,3.3
2023-03-17T14:02:21.966Z,2.7
2023-03-17T14:07:21.268Z,2.6
2023-03-17T14:12:20.625Z,4.7
2023-03-17T14:17:19.958Z,5.1
2023-03-17T14:22:19.301Z,2.6
2023-03-17T14:27:18.626Z,3
2023-03-17T14:32:17.928Z,2.2
2023-03-17T14:37:17.294Z,1.9
2023-03-17T14:42:16.609Z,2.6
2023-03-17T14:47:15.954Z,1.5
2023-03-17T14:52:15.303Z,4.2
2023-03-17T14:57:14.670Z,3.7
2023-03-17T15:02:14.014Z,3.2
2023-03-17T15:07:13.345Z,3.9
2023-03-17T15:12:12.697Z,9.4
2023-03-17T15:17:12.050Z,6.3
2023-03-17T15:22:11.350Z,2.2
2023-03-17T15:27:10.680Z,2.7
2023-03-17T15:32:09.980Z,15.6
2023-03-17T15:37:09.315Z,3.6
2023-03-17T15:42:08.670Z,5.9
2023-03-17T15:47:07.974Z,7.3
2023-03-17T15:52:07.301Z,1.6
2023-03-17T15:57:06.671Z,6.4
2023-03-17T16:02:06.066Z,2.9
2023-03-17T16:07:05.302Z,6.5
2023-03-17T16:12:04.645Z,11.3
2023-03-17T16:51:59.306Z,5.9
2023-03-17T16:56:58.604Z,8
2023-03-17T17:01:57.952Z,25.4
2023-03-17T17:06:57.254Z,30.7
2023-03-17T17:11:56.588Z,15.1
2023-03-17T17:16:55.854Z,9.8
2023-03-17T17:21:55.131Z,18.3
2023-03-17T17:26:54.356Z,9.9
2023-03-17T17:31:53.697Z,40.7
2023-03-17T17:36:52.906Z,49.7
2023-03-17T17:41:52.153Z,48
2023-03-17T17:46:51.445Z,21.9
2023-03-17T17:56:49.905Z,28.5
2023-03-17T18:01:49.159Z,45.1
2023-03-17T18:06:48.362Z,39.1
2023-03-17T18:11:47.586Z,29.9
2023-03-17T18:16:46.825Z,39.5
2023-03-17T18:21:46.087Z,41.4
2023-03-17T18:26:45.218Z,48.3
2023-03-17T18:31:44.528Z,56.3
2023-03-17T18:36:43.632Z,47.4
2023-03-17T18:41:42.847Z,52.2
2023-03-17T18:46:42.080Z,52.3
2023-03-17T18:51:41.224Z,49.8
2023-03-17T18:56:40.457Z,44.3
2023-03-17T19:01:39.630Z,52.5
2023-03-17T19:06:38.852Z,44.9
2023-03-17T19:11:38.054Z,35.2
2023-03-17T19:16:37.254Z,41.5
2023-03-17T19:21:36.356Z,47.8
2023-03-17T19:31:34.779Z,49.8
2023-03-17T19:36:33.923Z,45.8
2023-03-17T19:41:33.163Z,47.1
2023-03-17T19:46:32.401Z,52.3
2023-03-17T19:51:31.548Z,51.2
2023-03-17T19:56:30.620Z,54.6
2023-03-17T20:01:29.845Z,47.7
2023-03-17T20:06:28.974Z,46.1
2023-03-17T20:11:28.157Z,61.7
2023-03-17T20:16:27.348Z,65.3
2023-03-17T20:21:26.530Z,68.7
2023-03-17T20:26:25.624Z,71.5
2023-03-17T20:31:24.836Z,74.7
2023-03-17T20:36:23.931Z,76.7
2023-03-17T20:41:23.040Z,83.8
2023-03-17T20:46:22.187Z,79.6
2023-03-17T20:51:21.299Z,90.1
2023-03-17T20:56:20.442Z,96.7
2023-03-17T21:01:21.129Z,79.2
2023-03-17T21:06:18.673Z,88.9
2023-03-17T21:11:17.834Z,84.2
2023-03-17T21:16:16.986Z,81.5
2023-03-17T21:21:16.117Z,92.2
2023-03-17T21:26:15.261Z,76.3
2023-03-17T21:31:14.407Z,74.6
2023-03-17T21:36:13.483Z,81.9
2023-03-17T21:41:12.602Z,84.3
2023-03-17T21:46:11.858Z,95.2
2023-03-17T21:51:10.849Z,113.8
2023-03-17T21:56:12.342Z,97.6
2023-03-17T22:01:09.198Z,89.3
2023-03-17T22:06:08.289Z,93.1
2023-03-17T22:11:07.365Z,81.1
2023-03-17T22:16:06.572Z,87.6
2023-03-17T22:21:05.630Z,80.4
2023-03-17T22:26:04.675Z,86.9
2023-03-17T22:31:03.786Z,80.5
2023-03-17T22:36:03.112Z,79.6
2023-03-17T22:41:02.059Z,81.1
2023-03-17T22:46:01.187Z,70.2
2023-03-17T22:51:00.222Z,64.6
2023-03-17T22:55:59.318Z,74.4
2023-03-17T23:00:58.509Z,58.4
2023-03-17T23:05:57.494Z,48.5
2023-03-17T23:10:56.774Z,63.2
2023-03-17T23:15:55.711Z,60.7
2023-03-17T23:20:54.762Z,58.6
2023-03-17T23:25:53.847Z,62.3
2023-03-17T23:30:52.956Z,47.1
2023-03-17T23:35:52.006Z,45.2
2023-03-17T23:40:51.097Z,46.4
2023-03-17T23:45:50.251Z,49.8
2023-03-17T23:50:49.238Z,55.1
2023-03-17T23:55:48.269Z,54.8
